sensor_id;sensor_type;location;lat;lon;timestamp;P1;durP1;ratioP1;P2;durP2;ratioP2
58152;SDS011;43967;51.634;5.566;2022-08-16T00:03:03;7.50;;;3.97;;
58152;SDS011;43967;51.634;5.566;2022-08-16T00:08:04;7.40;;;3.95;;
58152;SDS011;43967;51.634;5.566;2022-08-16T00:13:06;7.53;;;4.00;;
58152;SDS011;43967;51.634;5.566;2022-08-16T00:18:09;7.23;;;4.00;;
58152;SDS011;43967;51.634;5.566;2022-08-16T00:23:11;7.18;;;3.97;;
58152;SDS011;43967;51.634;5.566;2022-08-16T00:28:13;7.55;;;4.07;;
58152;SDS011;43967;51.634;5.566;2022-08-16T00:33:14;7.63;;;3.90;;
58152;SDS011;43967;51.634;5.566;2022-08-16T00:38:15;7.33;;;3.80;;
58152;SDS011;43967;51.634;5.566;2022-08-16T00:43:18;7.53;;;3.92;;
58152;SDS011;43967;51.634;5.566;2022-08-16T00:48:25;7.20;;;3.55;;
58152;SDS011;43967;51.634;5.566;2022-08-16T00:53:27;6.77;;;3.63;;
58152;SDS011;43967;51.634;5.566;2022-08-16T00:58:28;9.07;;;3.85;;
58152;SDS011;43967;51.634;5.566;2022-08-16T01:03:31;8.25;;;4.00;;
58152;SDS011;43967;51.634;5.566;2022-08-16T01:08:33;7.00;;;3.80;;
58152;SDS011;43967;51.634;5.566;2022-08-16T01:13:36;7.57;;;3.90;;
58152;SDS011;43967;51.634;5.566;2022-08-16T01:18:43;7.78;;;4.28;;
58152;SDS011;43967;51.634;5.566;2022-08-16T01:28:57;7.00;;;3.60;;
58152;SDS011;43967;51.634;5.566;2022-08-16T01:34:01;7.70;;;4.00;;
58152;SDS011;43967;51.634;5.566;2022-08-16T01:39:07;7.70;;;4.03;;
58152;SDS011;43967;51.634;5.566;2022-08-16T01:44:11;6.93;;;3.60;;
58152;SDS011;43967;51.634;5.566;2022-08-16T01:49:15;7.63;;;3.90;;
58152;SDS011;43967;51.634;5.566;2022-08-16T01:54:18;7.47;;;4.00;;
58152;SDS011;43967;51.634;5.566;2022-08-16T01:59:25;7.53;;;3.80;;
58152;SDS011;43967;51.634;5.566;2022-08-16T02:04:28;9.32;;;3.83;;
58152;SDS011;43967;51.634;5.566;2022-08-16T02:09:29;7.30;;;4.05;;
58152;SDS011;43967;51.634;5.566;2022-08-16T02:14:31;7.47;;;4.47;;
58152;SDS011;43967;51.634;5.566;2022-08-16T02:19:35;7.60;;;4.13;;
58152;SDS011;43967;51.634;5.566;2022-08-16T02:24:39;7.65;;;4.03;;
58152;SDS011;43967;51.634;5.566;2022-08-16T02:29:41;8.25;;;3.88;;
58152;SDS011;43967;51.634;5.566;2022-08-16T02:34:43;7.37;;;3.70;;
58152;SDS011;43967;51.634;5.566;2022-08-16T02:39:44;7.65;;;3.80;;
58152;SDS011;43967;51.634;5.566;2022-08-16T02:44:45;8.23;;;4.60;;
58152;SDS011;43967;51.634;5.566;2022-08-16T02:49:46;7.60;;;4.37;;
58152;SDS011;43967;51.634;5.566;2022-08-16T02:54:49;8.55;;;3.55;;
58152;SDS011;43967;51.634;5.566;2022-08-16T02:59:50;7.90;;;3.78;;
58152;SDS011;43967;51.634;5.566;2022-08-16T03:04:51;9.87;;;4.00;;
58152;SDS011;43967;51.634;5.566;2022-08-16T03:09:54;7.57;;;3.63;;
58152;SDS011;43967;51.634;5.566;2022-08-16T03:14:57;8.32;;;4.30;;
58152;SDS011;43967;51.634;5.566;2022-08-16T03:19:59;10.98;;;4.63;;
58152;SDS011;43967;51.634;5.566;2022-08-16T03:25:05;9.10;;;3.80;;
58152;SDS011;43967;51.634;5.566;2022-08-16T03:30:17;6.88;;;4.05;;
58152;SDS011;43967;51.634;5.566;2022-08-16T03:35:26;7.65;;;4.03;;
58152;SDS011;43967;51.634;5.566;2022-08-16T03:40:31;6.83;;;3.70;;
58152;SDS011;43967;51.634;5.566;2022-08-16T03:45:33;7.85;;;4.30;;
58152;SDS011;43967;51.634;5.566;2022-08-16T03:50:35;7.55;;;4.30;;
58152;SDS011;43967;51.634;5.566;2022-08-16T03:55:38;8.13;;;4.30;;
58152;SDS011;43967;51.634;5.566;2022-08-16T04:00:39;9.33;;;4.70;;
58152;SDS011;43967;51.634;5.566;2022-08-16T04:05:46;7.30;;;4.20;;
58152;SDS011;43967;51.634;5.566;2022-08-16T04:10:51;7.85;;;3.97;;
58152;SDS011;43967;51.634;5.566;2022-08-16T04:15:53;7.47;;;3.97;;
58152;SDS011;43967;51.634;5.566;2022-08-16T04:20:56;7.50;;;4.57;;
58152;SDS011;43967;51.634;5.566;2022-08-16T04:26:00;7.00;;;3.90;;
58152;SDS011;43967;51.634;5.566;2022-08-16T04:31:02;8.33;;;4.13;;
58152;SDS011;43967;51.634;5.566;2022-08-16T04:36:05;7.43;;;3.97;;
58152;SDS011;43967;51.634;5.566;2022-08-16T04:41:06;8.00;;;4.15;;
58152;SDS011;43967;51.634;5.566;2022-08-16T04:46:08;7.67;;;4.00;;
58152;SDS011;43967;51.634;5.566;2022-08-16T04:51:14;7.43;;;4.17;;
58152;SDS011;43967;51.634;5.566;2022-08-16T04:56:17;7.95;;;4.47;;
58152;SDS011;43967;51.634;5.566;2022-08-16T05:01:19;8.43;;;4.68;;
58152;SDS011;43967;51.634;5.566;2022-08-16T05:06:21;8.37;;;4.13;;
58152;SDS011;43967;51.634;5.566;2022-08-16T05:11:22;8.00;;;4.20;;
58152;SDS011;43967;51.634;5.566;2022-08-16T05:16:25;8.55;;;4.60;;
58152;SDS011;43967;51.634;5.566;2022-08-16T05:21:36;7.40;;;3.93;;
58152;SDS011;43967;51.634;5.566;2022-08-16T05:26:37;7.63;;;3.90;;
58152;SDS011;43967;51.634;5.566;2022-08-16T05:31:38;8.77;;;4.28;;
58152;SDS011;43967;51.634;5.566;2022-08-16T05:36:40;8.00;;;4.40;;
58152;SDS011;43967;51.634;5.566;2022-08-16T05:41:42;7.10;;;3.47;;
58152;SDS011;43967;51.634;5.566;2022-08-16T05:46:44;7.93;;;4.15;;
58152;SDS011;43967;51.634;5.566;2022-08-16T05:51:50;7.32;;;4.47;;
58152;SDS011;43967;51.634;5.566;2022-08-16T05:56:53;7.40;;;4.10;;
58152;SDS011;43967;51.634;5.566;2022-08-16T06:01:56;8.07;;;4.22;;
58152;SDS011;43967;51.634;5.566;2022-08-16T06:07:04;7.60;;;4.10;;
58152;SDS011;43967;51.634;5.566;2022-08-16T06:12:07;8.37;;;4.07;;
58152;SDS011;43967;51.634;5.566;2022-08-16T06:17:10;8.65;;;4.00;;
58152;SDS011;43967;51.634;5.566;2022-08-16T06:22:11;7.95;;;4.15;;
58152;SDS011;43967;51.634;5.566;2022-08-16T06:27:14;7.70;;;3.97;;
58152;SDS011;43967;51.634;5.566;2022-08-16T06:32:15;8.70;;;3.83;;
58152;SDS011;43967;51.634;5.566;2022-08-16T06:37:16;7.50;;;3.65;;
58152;SDS011;43967;51.634;5.566;2022-08-16T06:42:18;7.30;;;4.07;;
58152;SDS011;43967;51.634;5.566;2022-08-16T06:47:34;7.50;;;3.87;;
58152;SDS011;43967;51.634;5.566;2022-08-16T06:52:36;7.18;;;3.72;;
58152;SDS011;43967;51.634;5.566;2022-08-16T06:57:39;7.85;;;3.83;;
58152;SDS011;43967;51.634;5.566;2022-08-16T07:02:40;7.97;;;4.00;;
58152;SDS011;43967;51.634;5.566;2022-08-16T07:07:47;7.43;;;4.07;;
58152;SDS011;43967;51.634;5.566;2022-08-16T07:12:49;8.40;;;3.90;;
58152;SDS011;43967;51.634;5.566;2022-08-16T07:17:51;7.90;;;3.93;;
58152;SDS011;43967;51.634;5.566;2022-08-16T07:22:54;7.50;;;3.90;;
58152;SDS011;43967;51.634;5.566;2022-08-16T07:27:58;7.43;;;3.92;;
58152;SDS011;43967;51.634;5.566;2022-08-16T07:33:03;7.90;;;4.10;;
58152;SDS011;43967;51.634;5.566;2022-08-16T07:38:04;7.60;;;4.10;;
58152;SDS011;43967;51.634;5.566;2022-08-16T07:43:16;6.60;;;3.60;;
58152;SDS011;43967;51.634;5.566;2022-08-16T07:48:17;7.35;;;3.78;;
58152;SDS011;43967;51.634;5.566;2022-08-16T07:53:24;6.97;;;3.53;;
58152;SDS011;43967;51.634;5.566;2022-08-16T07:58:27;7.22;;;4.22;;
58152;SDS011;43967;51.634;5.566;2022-08-16T08:03:29;6.93;;;3.92;;
58152;SDS011;43967;51.634;5.566;2022-08-16T08:08:31;7.10;;;3.90;;
58152;SDS011;43967;51.634;5.566;2022-08-16T08:13:33;8.27;;;3.60;;
58152;SDS011;43967;51.634;5.566;2022-08-16T08:18:35;7.43;;;3.90;;
58152;SDS011;43967;51.634;5.566;2022-08-16T08:23:36;7.23;;;3.63;;
58152;SDS011;43967;51.634;5.566;2022-08-16T08:28:37;7.97;;;3.90;;
58152;SDS011;43967;51.634;5.566;2022-08-16T08:33:40;7.18;;;3.72;;
58152;SDS011;43967;51.634;5.566;2022-08-16T08:38:41;7.13;;;3.63;;
58152;SDS011;43967;51.634;5.566;2022-08-16T08:43:43;7.47;;;3.73;;
58152;SDS011;43967;51.634;5.566;2022-08-16T08:48:48;7.57;;;4.00;;
58152;SDS011;43967;51.634;5.566;2022-08-16T08:53:52;6.70;;;3.67;;
58152;SDS011;43967;51.634;5.566;2022-08-16T08:58:54;8.17;;;3.83;;
58152;SDS011;43967;51.634;5.566;2022-08-16T09:04:04;7.70;;;3.90;;
58152;SDS011;43967;51.634;5.566;2022-08-16T09:09:07;6.53;;;3.53;;
58152;SDS011;43967;51.634;5.566;2022-08-16T09:14:09;6.90;;;3.90;;
58152;SDS011;43967;51.634;5.566;2022-08-16T09:19:10;6.83;;;3.50;;
58152;SDS011;43967;51.634;5.566;2022-08-16T09:24:12;6.50;;;3.20;;
58152;SDS011;43967;51.634;5.566;2022-08-16T09:29:14;7.78;;;4.00;;
58152;SDS011;43967;51.634;5.566;2022-08-16T09:34:15;6.80;;;3.70;;
58152;SDS011;43967;51.634;5.566;2022-08-16T09:39:17;6.38;;;3.17;;
58152;SDS011;43967;51.634;5.566;2022-08-16T09:44:18;6.72;;;3.40;;
58152;SDS011;43967;51.634;5.566;2022-08-16T09:49:19;7.47;;;3.80;;
58152;SDS011;43967;51.634;5.566;2022-08-16T09:54:21;6.80;;;3.30;;
58152;SDS011;43967;51.634;5.566;2022-08-16T09:59:24;7.40;;;3.40;;
58152;SDS011;43967;51.634;5.566;2022-08-16T10:04:25;6.90;;;3.60;;
58152;SDS011;43967;51.634;5.566;2022-08-16T10:09:26;6.80;;;3.73;;
58152;SDS011;43967;51.634;5.566;2022-08-16T10:14:28;6.95;;;3.65;;
58152;SDS011;43967;51.634;5.566;2022-08-16T10:19:29;6.68;;;3.13;;
58152;SDS011;43967;51.634;5.566;2022-08-16T10:24:31;6.40;;;3.30;;
58152;SDS011;43967;51.634;5.566;2022-08-16T10:29:33;7.10;;;3.53;;
58152;SDS011;43967;51.634;5.566;2022-08-16T10:34:34;7.25;;;3.30;;
58152;SDS011;43967;51.634;5.566;2022-08-16T10:39:35;6.80;;;3.63;;
58152;SDS011;43967;51.634;5.566;2022-08-16T10:44:36;7.50;;;3.10;;
58152;SDS011;43967;51.634;5.566;2022-08-16T10:49:37;6.40;;;3.30;;
58152;SDS011;43967;51.634;5.566;2022-08-16T10:54:38;8.07;;;3.57;;
58152;SDS011;43967;51.634;5.566;2022-08-16T10:59:40;6.70;;;3.20;;
58152;SDS011;43967;51.634;5.566;2022-08-16T11:04:41;6.82;;;3.40;;
58152;SDS011;43967;51.634;5.566;2022-08-16T11:09:42;6.13;;;2.80;;
58152;SDS011;43967;51.634;5.566;2022-08-16T11:14:43;6.70;;;3.23;;
58152;SDS011;43967;51.634;5.566;2022-08-16T11:19:44;7.22;;;3.20;;
58152;SDS011;43967;51.634;5.566;2022-08-16T11:24:45;7.40;;;3.20;;
58152;SDS011;43967;51.634;5.566;2022-08-16T11:29:49;6.23;;;2.97;;
58152;SDS011;43967;51.634;5.566;2022-08-16T11:34:53;7.18;;;3.22;;
58152;SDS011;43967;51.634;5.566;2022-08-16T11:39:54;6.63;;;3.22;;
58152;SDS011;43967;51.634;5.566;2022-08-16T11:44:55;6.57;;;3.33;;
58152;SDS011;43967;51.634;5.566;2022-08-16T11:49:56;6.40;;;3.33;;
58152;SDS011;43967;51.634;5.566;2022-08-16T11:54:57;6.50;;;3.20;;
58152;SDS011;43967;51.634;5.566;2022-08-16T11:59:58;6.70;;;3.15;;
58152;SDS011;43967;51.634;5.566;2022-08-16T12:05:00;6.30;;;3.10;;
58152;SDS011;43967;51.634;5.566;2022-08-16T12:10:02;6.68;;;3.03;;
58152;SDS011;43967;51.634;5.566;2022-08-16T12:15:05;6.57;;;2.80;;
58152;SDS011;43967;51.634;5.566;2022-08-16T12:20:08;6.30;;;3.10;;
58152;SDS011;43967;51.634;5.566;2022-08-16T12:25:15;6.32;;;2.90;;
58152;SDS011;43967;51.634;5.566;2022-08-16T12:30:20;7.25;;;3.13;;
58152;SDS011;43967;51.634;5.566;2022-08-16T12:35:24;6.87;;;3.40;;
58152;SDS011;43967;51.634;5.566;2022-08-16T12:40:32;5.93;;;2.87;;
58152;SDS011;43967;51.634;5.566;2022-08-16T12:45:37;6.22;;;3.15;;
58152;SDS011;43967;51.634;5.566;2022-08-16T12:50:44;6.20;;;3.00;;
58152;SDS011;43967;51.634;5.566;2022-08-16T12:55:46;6.47;;;2.77;;
58152;SDS011;43967;51.634;5.566;2022-08-16T13:00:48;6.60;;;3.25;;
58152;SDS011;43967;51.634;5.566;2022-08-16T13:05:49;6.15;;;3.20;;
58152;SDS011;43967;51.634;5.566;2022-08-16T13:10:50;6.10;;;2.90;;
58152;SDS011;43967;51.634;5.566;2022-08-16T13:15:53;6.68;;;2.90;;
58152;SDS011;43967;51.634;5.566;2022-08-16T13:20:56;7.00;;;3.03;;
58152;SDS011;43967;51.634;5.566;2022-08-16T13:25:57;5.90;;;2.77;;
58152;SDS011;43967;51.634;5.566;2022-08-16T13:31:00;6.80;;;3.07;;
58152;SDS011;43967;51.634;5.566;2022-08-16T13:36:02;6.00;;;3.00;;
58152;SDS011;43967;51.634;5.566;2022-08-16T13:41:09;6.05;;;2.90;;
58152;SDS011;43967;51.634;5.566;2022-08-16T13:46:10;6.27;;;2.87;;
58152;SDS011;43967;51.634;5.566;2022-08-16T13:51:15;5.90;;;2.90;;
58152;SDS011;43967;51.634;5.566;2022-08-16T13:56:19;6.22;;;2.70;;
58152;SDS011;43967;51.634;5.566;2022-08-16T14:01:20;6.00;;;2.90;;
58152;SDS011;43967;51.634;5.566;2022-08-16T14:06:21;5.90;;;2.78;;
58152;SDS011;43967;51.634;5.566;2022-08-16T14:11:22;5.70;;;2.53;;
58152;SDS011;43967;51.634;5.566;2022-08-16T14:16:24;6.27;;;2.97;;
58152;SDS011;43967;51.634;5.566;2022-08-16T14:21:25;6.20;;;3.13;;
58152;SDS011;43967;51.634;5.566;2022-08-16T14:26:26;7.22;;;2.85;;
58152;SDS011;43967;51.634;5.566;2022-08-16T14:31:27;5.63;;;2.67;;
58152;SDS011;43967;51.634;5.566;2022-08-16T14:36:28;5.90;;;2.77;;
58152;SDS011;43967;51.634;5.566;2022-08-16T14:41:30;5.95;;;2.70;;
58152;SDS011;43967;51.634;5.566;2022-08-16T14:46:31;5.93;;;2.80;;
58152;SDS011;43967;51.634;5.566;2022-08-16T14:51:33;5.80;;;2.43;;
58152;SDS011;43967;51.634;5.566;2022-08-16T14:56:34;5.85;;;2.60;;
58152;SDS011;43967;51.634;5.566;2022-08-16T15:01:35;5.70;;;2.67;;
58152;SDS011;43967;51.634;5.566;2022-08-16T15:06:36;6.10;;;2.97;;
58152;SDS011;43967;51.634;5.566;2022-08-16T15:11:37;6.00;;;2.97;;
58152;SDS011;43967;51.634;5.566;2022-08-16T15:16:38;6.00;;;2.60;;
58152;SDS011;43967;51.634;5.566;2022-08-16T15:21:39;5.90;;;2.83;;
58152;SDS011;43967;51.634;5.566;2022-08-16T15:26:40;6.17;;;2.90;;
58152;SDS011;43967;51.634;5.566;2022-08-16T15:31:41;6.07;;;2.97;;
58152;SDS011;43967;51.634;5.566;2022-08-16T15:36:43;5.90;;;2.85;;
58152;SDS011;43967;51.634;5.566;2022-08-16T15:46:45;5.72;;;2.50;;
58152;SDS011;43967;51.634;5.566;2022-08-16T15:51:46;6.15;;;2.80;;
58152;SDS011;43967;51.634;5.566;2022-08-16T15:56:47;6.63;;;2.60;;
58152;SDS011;43967;51.634;5.566;2022-08-16T16:01:48;6.07;;;3.10;;
58152;SDS011;43967;51.634;5.566;2022-08-16T16:06:49;5.78;;;2.78;;
58152;SDS011;43967;51.634;5.566;2022-08-16T16:11:51;5.70;;;2.70;;
58152;SDS011;43967;51.634;5.566;2022-08-16T16:16:52;5.90;;;2.70;;
58152;SDS011;43967;51.634;5.566;2022-08-16T16:21:54;6.10;;;2.90;;
58152;SDS011;43967;51.634;5.566;2022-08-16T16:26:55;6.07;;;3.00;;
58152;SDS011;43967;51.634;5.566;2022-08-16T16:31:56;6.03;;;2.70;;
58152;SDS011;43967;51.634;5.566;2022-08-16T16:36:57;6.45;;;2.80;;
58152;SDS011;43967;51.634;5.566;2022-08-16T16:41:58;6.38;;;3.17;;
58152;SDS011;43967;51.634;5.566;2022-08-16T16:46:59;6.00;;;2.90;;
58152;SDS011;43967;51.634;5.566;2022-08-16T16:52:00;5.90;;;2.63;;
58152;SDS011;43967;51.634;5.566;2022-08-16T16:57:01;6.32;;;3.00;;
58152;SDS011;43967;51.634;5.566;2022-08-16T17:02:03;6.30;;;3.10;;
58152;SDS011;43967;51.634;5.566;2022-08-16T17:07:04;5.83;;;2.50;;
58152;SDS011;43967;51.634;5.566;2022-08-16T17:12:05;6.72;;;2.80;;
58152;SDS011;43967;51.634;5.566;2022-08-16T17:17:08;6.10;;;2.40;;
58152;SDS011;43967;51.634;5.566;2022-08-16T17:22:10;6.37;;;2.60;;
58152;SDS011;43967;51.634;5.566;2022-08-16T17:27:13;5.65;;;2.60;;
58152;SDS011;43967;51.634;5.566;2022-08-16T17:32:15;5.80;;;2.92;;
58152;SDS011;43967;51.634;5.566;2022-08-16T17:37:16;6.10;;;2.87;;
58152;SDS011;43967;51.634;5.566;2022-08-16T17:42:17;7.30;;;2.87;;
58152;SDS011;43967;51.634;5.566;2022-08-16T17:47:19;6.07;;;2.88;;
58152;SDS011;43967;51.634;5.566;2022-08-16T17:52:20;7.32;;;2.63;;
58152;SDS011;43967;51.634;5.566;2022-08-16T17:57:21;6.03;;;2.83;;
58152;SDS011;43967;51.634;5.566;2022-08-16T18:02:22;5.90;;;2.70;;
58152;SDS011;43967;51.634;5.566;2022-08-16T18:07:23;6.07;;;2.70;;
58152;SDS011;43967;51.634;5.566;2022-08-16T18:12:24;6.30;;;2.90;;
58152;SDS011;43967;51.634;5.566;2022-08-16T18:17:25;6.05;;;2.85;;
58152;SDS011;43967;51.634;5.566;2022-08-16T18:22:28;7.45;;;3.80;;
58152;SDS011;43967;51.634;5.566;2022-08-16T18:27:31;6.87;;;3.57;;
58152;SDS011;43967;51.634;5.566;2022-08-16T18:32:32;7.37;;;3.67;;
58152;SDS011;43967;51.634;5.566;2022-08-16T18:37:34;7.30;;;3.90;;
58152;SDS011;43967;51.634;5.566;2022-08-16T18:42:35;6.88;;;3.53;;
58152;SDS011;43967;51.634;5.566;2022-08-16T18:47:36;6.40;;;2.93;;
58152;SDS011;43967;51.634;5.566;2022-08-16T18:52:37;6.10;;;3.20;;
58152;SDS011;43967;51.634;5.566;2022-08-16T18:57:46;6.47;;;3.00;;
58152;SDS011;43967;51.634;5.566;2022-08-16T19:02:47;6.13;;;3.10;;
58152;SDS011;43967;51.634;5.566;2022-08-16T19:07:49;6.32;;;3.28;;
58152;SDS011;43967;51.634;5.566;2022-08-16T19:12:50;7.55;;;2.90;;
58152;SDS011;43967;51.634;5.566;2022-08-16T19:17:51;6.20;;;3.20;;
58152;SDS011;43967;51.634;5.566;2022-08-16T19:22:53;6.60;;;3.60;;
58152;SDS011;43967;51.634;5.566;2022-08-16T19:27:56;6.68;;;3.30;;
58152;SDS011;43967;51.634;5.566;2022-08-16T19:32:57;6.80;;;3.67;;
58152;SDS011;43967;51.634;5.566;2022-08-16T19:37:58;7.13;;;3.17;;
58152;SDS011;43967;51.634;5.566;2022-08-16T19:42:59;6.00;;;2.80;;
58152;SDS011;43967;51.634;5.566;2022-08-16T19:48:00;5.93;;;2.83;;
58152;SDS011;43967;51.634;5.566;2022-08-16T19:53:03;6.80;;;3.57;;
58152;SDS011;43967;51.634;5.566;2022-08-16T19:58:07;7.03;;;3.40;;
58152;SDS011;43967;51.634;5.566;2022-08-16T20:03:14;8.45;;;3.30;;
58152;SDS011;43967;51.634;5.566;2022-08-16T20:08:17;6.33;;;3.07;;
58152;SDS011;43967;51.634;5.566;2022-08-16T20:13:20;6.63;;;3.67;;
58152;SDS011;43967;51.634;5.566;2022-08-16T20:18:22;8.68;;;4.47;;
58152;SDS011;43967;51.634;5.566;2022-08-16T20:23:23;8.13;;;4.28;;
58152;SDS011;43967;51.634;5.566;2022-08-16T20:28:24;6.80;;;3.53;;
58152;SDS011;43967;51.634;5.566;2022-08-16T20:33:26;7.38;;;4.30;;
58152;SDS011;43967;51.634;5.566;2022-08-16T20:38:27;6.68;;;3.70;;
58152;SDS011;43967;51.634;5.566;2022-08-16T20:43:28;7.40;;;4.07;;
58152;SDS011;43967;51.634;5.566;2022-08-16T20:48:29;8.05;;;4.68;;
58152;SDS011;43967;51.634;5.566;2022-08-16T20:53:30;8.52;;;4.10;;
58152;SDS011;43967;51.634;5.566;2022-08-16T20:58:31;7.70;;;4.17;;
58152;SDS011;43967;51.634;5.566;2022-08-16T21:03:32;6.70;;;3.80;;
58152;SDS011;43967;51.634;5.566;2022-08-16T21:08:34;7.63;;;4.38;;
58152;SDS011;43967;51.634;5.566;2022-08-16T21:13:36;8.52;;;4.28;;
58152;SDS011;43967;51.634;5.566;2022-08-16T21:18:37;9.00;;;4.20;;
58152;SDS011;43967;51.634;5.566;2022-08-16T21:23:38;8.60;;;3.95;;
58152;SDS011;43967;51.634;5.566;2022-08-16T21:28:39;7.35;;;4.25;;
58152;SDS011;43967;51.634;5.566;2022-08-16T21:33:41;7.80;;;4.53;;
58152;SDS011;43967;51.634;5.566;2022-08-16T21:38:43;8.45;;;4.20;;
58152;SDS011;43967;51.634;5.566;2022-08-16T21:43:44;6.85;;;3.92;;
58152;SDS011;43967;51.634;5.566;2022-08-16T21:48:45;7.30;;;4.40;;
58152;SDS011;43967;51.634;5.566;2022-08-16T21:53:46;7.80;;;4.50;;
58152;SDS011;43967;51.634;5.566;2022-08-16T21:58:47;8.70;;;4.82;;
58152;SDS011;43967;51.634;5.566;2022-08-16T22:03:49;7.75;;;5.05;;
58152;SDS011;43967;51.634;5.566;2022-08-16T22:08:51;8.73;;;5.10;;
58152;SDS011;43967;51.634;5.566;2022-08-16T22:13:52;7.95;;;4.93;;
58152;SDS011;43967;51.634;5.566;2022-08-16T22:18:53;9.50;;;5.38;;
58152;SDS011;43967;51.634;5.566;2022-08-16T22:23:55;8.73;;;5.67;;
58152;SDS011;43967;51.634;5.566;2022-08-16T22:28:58;9.30;;;5.65;;
58152;SDS011;43967;51.634;5.566;2022-08-16T22:34:00;8.45;;;5.68;;
58152;SDS011;43967;51.634;5.566;2022-08-16T22:39:03;9.27;;;6.00;;
58152;SDS011;43967;51.634;5.566;2022-08-16T22:44:06;9.23;;;6.23;;
58152;SDS011;43967;51.634;5.566;2022-08-16T22:49:07;10.18;;;6.32;;
58152;SDS011;43967;51.634;5.566;2022-08-16T22:54:08;9.55;;;5.70;;
58152;SDS011;43967;51.634;5.566;2022-08-16T22:59:10;8.97;;;5.97;;
58152;SDS011;43967;51.634;5.566;2022-08-16T23:04:11;9.55;;;5.85;;
58152;SDS011;43967;51.634;5.566;2022-08-16T23:09:12;9.98;;;5.90;;
58152;SDS011;43967;51.634;5.566;2022-08-16T23:14:13;8.80;;;6.20;;
58152;SDS011;43967;51.634;5.566;2022-08-16T23:19:14;9.13;;;6.60;;
58152;SDS011;43967;51.634;5.566;2022-08-16T23:24:16;8.93;;;6.22;;
58152;SDS011;43967;51.634;5.566;2022-08-16T23:29:19;10.70;;;6.50;;
58152;SDS011;43967;51.634;5.566;2022-08-16T23:34:22;9.67;;;6.63;;
58152;SDS011;43967;51.634;5.566;2022-08-16T23:39:23;9.75;;;6.82;;
58152;SDS011;43967;51.634;5.566;2022-08-16T23:44:24;9.48;;;6.20;;
58152;SDS011;43967;51.634;5.566;2022-08-16T23:49:25;8.90;;;6.17;;
58152;SDS011;43967;51.634;5.566;2022-08-16T23:54:26;8.98;;;6.00;;
58152;SDS011;43967;51.634;5.566;2022-08-16T23:59:28;10.25;;;6.53;;
